createdAt,value
2022-09-28T00:00:46.117Z,0.00
2022-09-28T00:01:46.213Z,0.00
2022-09-28T00:02:46.303Z,0.00
2022-09-28T00:03:46.076Z,0.00
2022-09-28T00:04:46.061Z,0.00
2022-09-28T00:05:46.050Z,0.00
2022-09-28T00:06:46.042Z,0.00
2022-09-28T00:07:46.034Z,0.00
2022-09-28T00:08:46.042Z,0.00
2022-09-28T00:09:46.026Z,0.00
2022-09-28T00:10:46.003Z,0.00
2022-09-28T00:11:45.990Z,0.00
2022-09-28T00:12:45.964Z,0.00
2022-09-28T00:13:45.956Z,0.00
2022-09-28T00:14:45.975Z,0.00
2022-09-28T00:15:45.936Z,0.00
2022-09-28T00:16:45.930Z,0.00
2022-09-28T00:17:45.906Z,0.00
2022-09-28T00:18:45.892Z,0.00
2022-09-28T00:19:45.875Z,0.00
2022-09-28T00:20:45.886Z,0.00
2022-09-28T00:21:45.850Z,0.00
2022-09-28T00:22:45.837Z,0.00
2022-09-28T00:23:45.837Z,0.00
2022-09-28T00:24:45.797Z,0.00
2022-09-28T00:25:45.808Z,0.00
2022-09-28T00:26:45.814Z,0.00
2022-09-28T00:27:45.778Z,0.00
2022-09-28T00:28:45.759Z,0.00
2022-09-28T00:29:45.750Z,0.00
2022-09-28T00:30:45.739Z,0.00
2022-09-28T00:31:45.802Z,0.00
2022-09-28T00:32:45.743Z,0.00
2022-09-28T00:33:45.708Z,0.00
2022-09-28T00:34:45.712Z,0.00
2022-09-28T00:35:45.672Z,0.00
2022-09-28T00:36:45.650Z,0.00
2022-09-28T00:37:45.640Z,0.00
2022-09-28T00:38:45.663Z,0.00
2022-09-28T00:39:45.621Z,0.00
2022-09-28T00:40:45.697Z,0.00
2022-09-28T00:41:45.593Z,0.00
2022-09-28T00:42:45.574Z,0.00
2022-09-28T00:43:45.574Z,0.00
2022-09-28T00:44:45.583Z,0.00
2022-09-28T00:45:45.586Z,0.00
2022-09-28T00:46:45.525Z,0.00
2022-09-28T00:47:45.525Z,0.00
2022-09-28T00:48:45.510Z,0.00
2022-09-28T00:49:45.498Z,0.00
2022-09-28T00:50:45.505Z,0.00
2022-09-28T00:51:45.477Z,0.00
2022-09-28T00:52:45.446Z,0.00
2022-09-28T00:53:45.445Z,0.00
2022-09-28T00:54:45.429Z,0.00
2022-09-28T00:55:45.413Z,0.00
2022-09-28T00:56:45.437Z,0.00
2022-09-28T00:57:45.388Z,0.00
2022-09-28T00:58:45.376Z,0.00
2022-09-28T00:59:45.370Z,0.00
2022-09-28T01:00:45.397Z,0.00
2022-09-28T01:01:45.373Z,0.00
2022-09-28T01:02:45.349Z,0.00
2022-09-28T01:03:45.324Z,0.00
2022-09-28T01:04:45.337Z,0.00
2022-09-28T01:05:45.290Z,0.00
2022-09-28T01:06:45.272Z,0.00
2022-09-28T01:07:45.268Z,0.00
2022-09-28T01:08:45.369Z,0.00
2022-09-28T01:09:45.250Z,0.00
2022-09-28T01:10:45.223Z,0.00
2022-09-28T01:11:45.210Z,0.00
2022-09-28T01:12:45.194Z,0.00
2022-09-28T01:13:45.185Z,0.00
2022-09-28T01:14:45.205Z,0.00
2022-09-28T01:15:45.159Z,0.00
2022-09-28T01:16:45.218Z,0.00
2022-09-28T01:17:45.133Z,0.00
2022-09-28T01:18:45.122Z,0.00
2022-09-28T01:19:45.137Z,0.00
2022-09-28T01:20:45.123Z,0.00
2022-09-28T01:21:45.082Z,0.00
2022-09-28T01:22:45.074Z,0.00
2022-09-28T01:23:45.055Z,0.00
2022-09-28T01:24:45.075Z,0.00
2022-09-28T01:25:45.040Z,0.00
2022-09-28T01:26:45.105Z,0.00
2022-09-28T01:27:45.005Z,0.00
2022-09-28T01:28:44.995Z,0.00
2022-09-28T01:29:44.976Z,0.00
2022-09-28T01:30:44.974Z,0.00
2022-09-28T01:31:44.986Z,0.00
2022-09-28T01:32:44.976Z,0.00
2022-09-28T01:33:44.937Z,0.00
2022-09-28T01:34:44.918Z,0.00
2022-09-28T01:35:44.907Z,0.00
2022-09-28T01:36:44.900Z,0.00
2022-09-28T01:37:44.877Z,0.00
2022-09-28T01:38:44.898Z,0.00
2022-09-28T01:39:44.850Z,0.00
2022-09-28T01:40:44.870Z,0.00
2022-09-28T01:41:44.822Z,0.00
2022-09-28T01:42:44.819Z,0.00
2022-09-28T01:43:44.800Z,0.00
2022-09-28T01:44:44.822Z,0.00
2022-09-28T01:45:44.782Z,0.00
2022-09-28T01:46:44.860Z,0.00
2022-09-28T01:47:44.751Z,0.00
2022-09-28T01:48:44.732Z,0.00
2022-09-28T01:49:44.721Z,0.00
2022-09-28T01:50:44.742Z,0.00
2022-09-28T01:51:44.691Z,0.00
2022-09-28T01:52:44.695Z,0.00
2022-09-28T01:53:44.672Z,0.00
2022-09-28T01:54:44.663Z,0.00
2022-09-28T01:55:44.657Z,0.00
2022-09-28T01:56:44.657Z,0.00
2022-09-28T01:57:44.613Z,0.00
2022-09-28T01:58:44.605Z,0.00
2022-09-28T01:59:44.609Z,0.00
2022-09-28T02:00:44.636Z,0.00
2022-09-28T02:01:44.598Z,0.00
2022-09-28T02:02:44.595Z,0.00
2022-09-28T02:03:44.545Z,0.00
2022-09-28T02:04:44.542Z,0.00
2022-09-28T02:05:44.519Z,0.00
2022-09-28T02:06:44.514Z,0.00
2022-09-28T02:07:44.496Z,0.00
2022-09-28T02:08:44.598Z,0.00
2022-09-28T02:09:44.474Z,0.00
2022-09-28T02:10:44.458Z,0.00
2022-09-28T02:11:44.471Z,0.00
2022-09-28T02:12:44.428Z,0.00
2022-09-28T02:13:44.430Z,0.00
2022-09-28T02:14:44.509Z,0.00
2022-09-28T02:15:44.398Z,0.00
2022-09-28T02:16:44.424Z,0.00
2022-09-28T02:17:44.370Z,0.00
2022-09-28T02:18:44.349Z,0.00
2022-09-28T02:19:44.341Z,0.00
2022-09-28T02:20:44.360Z,0.00
2022-09-28T02:21:44.312Z,0.00
2022-09-28T02:22:44.301Z,0.00
2022-09-28T02:23:44.292Z,0.00
2022-09-28T02:24:44.272Z,0.00
2022-09-28T02:25:44.262Z,0.00
2022-09-28T02:26:44.284Z,0.00
2022-09-28T02:27:44.239Z,0.00
2022-09-28T02:28:44.231Z,0.00
2022-09-28T02:29:44.213Z,0.00
2022-09-28T02:30:44.203Z,0.00
2022-09-28T02:31:44.247Z,0.00
2022-09-28T02:32:44.213Z,0.00
2022-09-28T02:33:44.165Z,0.00
2022-09-28T02:34:44.149Z,0.00
2022-09-28T02:35:44.143Z,0.00
2022-09-28T02:36:44.135Z,0.00
2022-09-28T02:37:44.117Z,0.00
2022-09-28T02:38:44.125Z,0.00
2022-09-28T02:39:44.090Z,0.00
2022-09-28T02:40:44.083Z,0.00
2022-09-28T02:41:44.056Z,0.00
2022-09-28T02:42:44.046Z,0.00
2022-09-28T02:43:44.043Z,0.00
2022-09-28T02:44:44.037Z,0.00
2022-09-28T02:45:44.058Z,0.00
2022-09-28T02:46:43.999Z,0.00
2022-09-28T02:47:43.981Z,0.00
2022-09-28T02:48:45.717Z,0.00
2022-09-28T02:49:44.981Z,0.00
2022-09-28T02:50:43.948Z,0.00
2022-09-28T02:51:43.942Z,0.00
2022-09-28T02:52:43.934Z,0.00
2022-09-28T02:53:43.934Z,0.00
2022-09-28T02:54:43.910Z,0.00
2022-09-28T02:55:43.914Z,0.00
2022-09-28T02:56:43.876Z,0.00
2022-09-28T02:57:43.854Z,0.00
2022-09-28T02:58:43.852Z,0.00
2022-09-28T02:59:43.836Z,0.00
2022-09-28T03:00:43.844Z,0.00
2022-09-28T03:01:43.969Z,0.00
2022-09-28T03:02:43.804Z,0.00
2022-09-28T03:03:43.783Z,0.00
2022-09-28T03:04:43.772Z,0.00
2022-09-28T03:05:43.754Z,0.00
2022-09-28T03:06:43.743Z,0.00
2022-09-28T03:07:43.767Z,0.00
2022-09-28T03:08:43.718Z,0.00
2022-09-28T03:09:43.704Z,0.00
2022-09-28T03:10:43.684Z,0.00
2022-09-28T03:11:43.682Z,0.00
2022-09-28T03:12:43.665Z,0.00
2022-09-28T03:13:43.685Z,0.00
2022-09-28T03:14:43.650Z,0.00
2022-09-28T03:15:48.403Z,0.00
2022-09-28T03:16:44.708Z,0.00
2022-09-28T03:17:43.603Z,0.00
2022-09-28T03:18:43.594Z,0.00
2022-09-28T03:19:43.609Z,0.00
2022-09-28T03:20:43.566Z,0.00
2022-09-28T03:21:43.550Z,0.00
2022-09-28T03:22:51.942Z,0.00
2022-09-28T03:23:44.533Z,0.00
2022-09-28T03:24:43.521Z,0.00
2022-09-28T03:25:43.619Z,0.00
2022-09-28T03:26:43.492Z,0.00
2022-09-28T03:27:43.469Z,0.00
2022-09-28T03:28:43.460Z,0.00
2022-09-28T03:29:43.451Z,0.00
2022-09-28T03:30:43.450Z,0.00
2022-09-28T03:31:43.458Z,0.00
2022-09-28T03:32:43.410Z,0.00
2022-09-28T03:33:43.401Z,0.00
2022-09-28T03:34:43.382Z,0.00
2022-09-28T03:35:43.371Z,0.00
2022-09-28T03:36:43.355Z,0.00
2022-09-28T03:37:43.362Z,0.00
2022-09-28T03:38:43.333Z,0.00
2022-09-28T03:39:43.312Z,0.00
2022-09-28T03:40:43.390Z,0.00
2022-09-28T03:41:43.294Z,0.00
2022-09-28T03:42:43.289Z,0.00
2022-09-28T03:43:43.283Z,0.00
2022-09-28T03:44:43.261Z,0.00
2022-09-28T03:45:43.279Z,0.00
2022-09-28T03:46:43.224Z,0.00
2022-09-28T03:47:43.215Z,0.00
2022-09-28T03:48:43.236Z,0.00
2022-09-28T03:49:43.224Z,0.00
2022-09-28T03:50:43.177Z,0.00
2022-09-28T03:51:43.166Z,0.00
2022-09-28T03:52:43.152Z,0.00
2022-09-28T03:53:43.135Z,0.00
2022-09-28T03:54:48.343Z,0.00
2022-09-28T03:55:44.137Z,0.00
2022-09-28T03:56:43.097Z,0.00
2022-09-28T03:57:43.096Z,0.00
2022-09-28T03:58:43.098Z,0.00
2022-09-28T03:59:43.086Z,0.00
2022-09-28T04:00:43.105Z,0.00
2022-09-28T04:01:43.205Z,0.00
2022-09-28T04:02:43.028Z,0.00
2022-09-28T04:03:43.008Z,0.00
2022-09-28T04:04:43.008Z,0.00
2022-09-28T04:05:42.995Z,0.00
2022-09-28T04:06:42.970Z,0.00
2022-09-28T04:07:42.978Z,0.00
2022-09-28T04:08:42.971Z,0.00
2022-09-28T04:09:42.939Z,0.00
2022-09-28T04:10:42.930Z,0.00
2022-09-28T04:11:59.689Z,0.00
2022-09-28T04:12:43.942Z,0.00
2022-09-28T04:13:43.830Z,0.00
2022-09-28T04:14:42.870Z,0.00
2022-09-28T04:15:42.870Z,0.00
2022-09-28T04:16:42.870Z,0.00
2022-09-28T04:17:42.832Z,0.00
2022-09-28T04:18:42.852Z,0.00
2022-09-28T04:19:42.813Z,0.00
2022-09-28T04:20:42.793Z,0.00
2022-09-28T04:21:42.775Z,0.00
2022-09-28T04:22:42.857Z,0.00
2022-09-28T04:23:42.811Z,0.00
2022-09-28T04:24:42.790Z,0.00
2022-09-28T04:25:42.778Z,0.00
2022-09-28T04:26:42.723Z,0.00
2022-09-28T04:27:42.708Z,0.00
2022-09-28T04:28:42.702Z,0.00
2022-09-28T04:29:42.678Z,0.00
2022-09-28T04:30:42.688Z,0.00
2022-09-28T04:31:42.748Z,0.00
2022-09-28T04:32:42.640Z,0.00
2022-09-28T04:33:42.644Z,0.00
2022-09-28T04:34:44.346Z,0.00
2022-09-28T04:35:42.599Z,0.00
2022-09-28T04:36:42.639Z,0.00
2022-09-28T04:37:42.572Z,0.00
2022-09-28T04:38:52.897Z,0.00
2022-09-28T04:39:47.591Z,0.00
2022-09-28T04:40:43.581Z,0.00
2022-09-28T04:41:42.521Z,0.00
2022-09-28T04:42:42.542Z,0.00
2022-09-28T04:43:42.492Z,0.00
2022-09-28T04:44:42.487Z,0.00
2022-09-28T04:45:42.509Z,0.00
2022-09-28T04:46:42.463Z,0.00
2022-09-28T04:47:42.453Z,0.00
2022-09-28T04:48:42.483Z,0.00
2022-09-28T04:49:42.427Z,0.00
2022-09-28T04:50:42.414Z,0.00
2022-09-28T04:51:42.418Z,0.00
2022-09-28T04:52:42.418Z,0.00
2022-09-28T04:53:42.364Z,0.00
2022-09-28T04:54:42.575Z,0.00
2022-09-28T04:55:42.346Z,0.00
2022-09-28T04:56:42.355Z,1.00
2022-09-28T04:57:42.334Z,0.00
2022-09-28T04:58:42.312Z,0.00
2022-09-28T04:59:42.287Z,2.00
2022-09-28T05:00:42.366Z,2.00
2022-09-28T05:01:42.266Z,0.00
2022-09-28T05:02:42.292Z,4.00
2022-09-28T05:03:42.237Z,4.00
2022-09-28T05:04:42.239Z,2.00
2022-09-28T05:05:42.227Z,6.00
2022-09-28T05:06:42.329Z,9.00
2022-09-28T05:07:42.367Z,15.00
2022-09-28T05:08:42.189Z,9.00
2022-09-28T05:09:42.159Z,20.00
2022-09-28T05:10:42.162Z,18.00
2022-09-28T05:11:42.152Z,18.00
2022-09-28T05:12:42.169Z,25.00
2022-09-28T05:13:42.116Z,36.00
2022-09-28T05:14:42.099Z,38.00
2022-09-28T05:15:42.113Z,36.00
2022-09-28T05:16:42.176Z,36.00
2022-09-28T05:17:42.066Z,36.00
2022-09-28T05:18:42.089Z,39.00
2022-09-28T05:19:42.032Z,43.00
2022-09-28T05:20:42.021Z,48.00
2022-09-28T05:21:42.025Z,59.00
2022-09-28T05:22:42.003Z,68.00
2022-09-28T05:23:41.989Z,80.00
2022-09-28T05:24:41.995Z,82.00
2022-09-28T05:25:41.964Z,84.00
2022-09-28T05:26:41.943Z,87.00
2022-09-28T05:27:41.943Z,87.00
2022-09-28T05:28:41.935Z,89.00
2022-09-28T05:29:41.913Z,91.00
2022-09-28T05:30:41.936Z,97.00
2022-09-28T05:31:41.924Z,102.00
2022-09-28T05:32:41.893Z,109.00
2022-09-28T05:33:41.861Z,117.00
2022-09-28T05:34:41.846Z,131.00
2022-09-28T05:35:41.837Z,147.00
2022-09-28T05:36:41.858Z,160.00
2022-09-28T05:37:41.819Z,178.00
2022-09-28T05:38:41.817Z,200.00
2022-09-28T05:39:41.778Z,235.00
2022-09-28T05:40:41.813Z,252.00
2022-09-28T05:41:41.760Z,261.00
2022-09-28T05:42:41.769Z,276.00
2022-09-28T05:43:41.730Z,290.00
2022-09-28T05:44:41.717Z,297.00
2022-09-28T05:45:41.746Z,300.00
2022-09-28T05:46:41.693Z,324.00
2022-09-28T05:47:41.683Z,340.00
2022-09-28T05:48:41.706Z,382.00
2022-09-28T05:49:41.652Z,484.00
2022-09-28T05:50:41.641Z,568.00
2022-09-28T05:51:41.705Z,614.00
2022-09-28T05:52:41.611Z,657.00
2022-09-28T05:53:41.602Z,706.00
2022-09-28T05:54:41.613Z,743.00
2022-09-28T05:55:41.584Z,769.00
2022-09-28T05:56:41.572Z,797.00
2022-09-28T05:57:41.557Z,830.00
2022-09-28T05:58:41.543Z,833.00
2022-09-28T05:59:41.536Z,833.00
2022-09-28T06:00:41.536Z,864.00
2022-09-28T06:01:41.580Z,925.00
2022-09-28T06:02:41.577Z,982.00
2022-09-28T06:03:41.493Z,1015.00
2022-09-28T06:04:41.466Z,1022.00
2022-09-28T06:05:41.457Z,1026.00
2022-09-28T06:06:41.469Z,1048.00
2022-09-28T06:07:41.435Z,1041.00
2022-09-28T06:08:41.417Z,1055.00
2022-09-28T06:09:41.437Z,1045.00
2022-09-28T06:10:41.391Z,1008.00
2022-09-28T06:11:41.768Z,983.00
2022-09-28T06:12:41.468Z,1009.00
2022-09-28T06:13:41.347Z,1004.00
2022-09-28T06:14:41.332Z,966.00
2022-09-28T06:15:41.335Z,902.00
2022-09-28T06:16:43.864Z,807.00
2022-09-28T06:17:41.303Z,731.00
2022-09-28T06:18:41.413Z,724.00
2022-09-28T06:19:41.280Z,708.00
2022-09-28T06:20:41.283Z,701.00
2022-09-28T06:21:41.272Z,701.00
2022-09-28T06:22:41.238Z,719.00
2022-09-28T06:23:43.625Z,685.00
2022-09-28T06:24:42.332Z,706.00
2022-09-28T06:25:41.201Z,744.00
2022-09-28T06:26:41.202Z,745.00
2022-09-28T06:27:41.173Z,748.00
2022-09-28T06:28:41.964Z,877.00
2022-09-28T06:29:41.152Z,1043.00
2022-09-28T06:30:41.337Z,1186.00
2022-09-28T06:31:41.126Z,1299.00
2022-09-28T06:32:41.899Z,1444.00
2022-09-28T06:33:41.101Z,1600.00
2022-09-28T06:34:41.890Z,1705.00
2022-09-28T06:35:41.082Z,1790.00
2022-09-28T06:36:41.213Z,1728.00
2022-09-28T06:37:41.055Z,1662.00
2022-09-28T06:38:41.044Z,1670.00
2022-09-28T06:39:42.464Z,1731.00
2022-09-28T06:40:41.040Z,1828.00
2022-09-28T06:41:41.008Z,2004.00
2022-09-28T06:42:41.786Z,2347.00
2022-09-28T06:43:41.528Z,2727.00
2022-09-28T06:44:40.964Z,3075.00
2022-09-28T06:45:41.015Z,3342.00
2022-09-28T06:46:40.941Z,3567.00
2022-09-28T06:47:41.101Z,3758.00
2022-09-28T06:48:41.737Z,3903.00
2022-09-28T06:49:40.900Z,4019.00
2022-09-28T06:50:40.907Z,4060.00
2022-09-28T06:51:40.897Z,4080.00
2022-09-28T06:52:40.859Z,4025.00
2022-09-28T06:53:40.839Z,3987.00
2022-09-28T06:54:40.859Z,3963.00
2022-09-28T06:55:40.819Z,3875.00
2022-09-28T06:56:40.947Z,3767.00
2022-09-28T06:57:41.596Z,3575.00
2022-09-28T06:58:41.584Z,3355.00
2022-09-28T06:59:40.878Z,3127.00
2022-09-28T07:00:40.800Z,2996.00
2022-09-28T07:01:40.830Z,2985.00
2022-09-28T07:02:40.785Z,3003.00
2022-09-28T07:03:40.723Z,2907.00
2022-09-28T07:04:41.500Z,2788.00
2022-09-28T07:05:40.703Z,2644.00
2022-09-28T07:06:40.805Z,2593.00
2022-09-28T07:07:40.668Z,2651.00
2022-09-28T07:08:40.658Z,2823.00
2022-09-28T07:09:43.834Z,3020.00
2022-09-28T07:10:41.636Z,3173.00
2022-09-28T07:11:40.625Z,3244.00
2022-09-28T07:12:40.724Z,3269.00
2022-09-28T07:13:56.006Z,3243.00
2022-09-28T07:14:47.929Z,3167.00
2022-09-28T07:15:40.594Z,3079.00
2022-09-28T07:17:05.390Z,2998.00
2022-09-28T07:17:56.726Z,2969.00
2022-09-28T07:18:41.535Z,2914.00
2022-09-28T07:19:40.580Z,2899.00
2022-09-28T07:20:51.045Z,2891.00
2022-09-28T07:21:42.387Z,2972.00
2022-09-28T07:22:43.764Z,3066.00
2022-09-28T07:23:50.827Z,3222.00
2022-09-28T07:24:42.249Z,3410.00
2022-09-28T07:25:40.441Z,3461.00
2022-09-28T07:26:40.443Z,3346.00
2022-09-28T07:27:41.388Z,3220.00
2022-09-28T07:28:40.410Z,3246.00
2022-09-28T07:29:40.448Z,3403.00
2022-09-28T07:30:40.544Z,3650.00
2022-09-28T07:31:40.372Z,3940.00
2022-09-28T07:32:40.469Z,4147.00
2022-09-28T07:33:40.378Z,4368.00
2022-09-28T07:34:40.330Z,4383.00
2022-09-28T07:35:40.357Z,4140.00
2022-09-28T07:36:40.313Z,3992.00
2022-09-28T07:37:40.282Z,4054.00
2022-09-28T07:38:41.062Z,4315.00
2022-09-28T07:39:40.272Z,4597.00
2022-09-28T07:40:41.134Z,4899.00
2022-09-28T07:41:40.274Z,5287.00
2022-09-28T07:42:40.224Z,5579.00
2022-09-28T07:43:40.230Z,5739.00
2022-09-28T07:44:40.193Z,5627.00
2022-09-28T07:45:40.246Z,5339.00
2022-09-28T07:46:40.967Z,4827.00
2022-09-28T07:47:40.194Z,4434.00
2022-09-28T07:48:40.168Z,4322.00
2022-09-28T07:49:40.163Z,4830.00
2022-09-28T07:50:40.284Z,5517.00
2022-09-28T07:51:40.925Z,6130.00
2022-09-28T07:52:40.149Z,6594.00
2022-09-28T07:53:40.126Z,6570.00
2022-09-28T07:54:40.077Z,6304.00
2022-09-28T07:55:40.061Z,6309.00
2022-09-28T07:56:40.055Z,6809.00
2022-09-28T07:57:40.052Z,7243.00
2022-09-28T07:58:40.070Z,7197.00
2022-09-28T07:59:40.048Z,7019.00
2022-09-28T08:00:39.998Z,7026.00
2022-09-28T08:01:40.055Z,7154.00
2022-09-28T08:02:40.063Z,7423.00
2022-09-28T08:03:39.970Z,7376.00
2022-09-28T08:04:39.943Z,7793.00
2022-09-28T08:05:40.060Z,8627.00
2022-09-28T08:06:39.989Z,8273.00
2022-09-28T08:07:39.955Z,8972.00
2022-09-28T08:08:40.001Z,9080.00
2022-09-28T08:09:39.890Z,9066.00
2022-09-28T08:10:43.376Z,8892.00
2022-09-28T08:11:41.252Z,8795.00
2022-09-28T08:12:39.857Z,8806.00
2022-09-28T08:13:39.864Z,8643.00
2022-09-28T08:14:39.833Z,8538.00
2022-09-28T08:15:39.836Z,8563.00
2022-09-28T08:16:39.807Z,8867.00
2022-09-28T08:17:39.813Z,8988.00
2022-09-28T08:18:39.786Z,8125.00
2022-09-28T08:19:39.775Z,8179.00
2022-09-28T08:20:39.987Z,9457.00
2022-09-28T08:21:39.743Z,9668.00
2022-09-28T08:22:39.737Z,10241.00
2022-09-28T08:23:39.738Z,10260.00
2022-09-28T08:24:39.702Z,9861.00
2022-09-28T08:25:39.686Z,9069.00
2022-09-28T08:26:39.743Z,9367.00
2022-09-28T08:27:39.666Z,9792.00
2022-09-28T08:28:39.656Z,9403.00
2022-09-28T08:29:39.679Z,8828.00
2022-09-28T08:30:39.651Z,8518.00
2022-09-28T08:31:39.617Z,8499.00
2022-09-28T08:32:39.620Z,8432.00
2022-09-28T08:33:39.601Z,8537.00
2022-09-28T08:34:39.581Z,9155.00
2022-09-28T08:35:39.580Z,9467.00
2022-09-28T08:36:39.549Z,9441.00
2022-09-28T08:37:39.555Z,9341.00
2022-09-28T08:38:39.519Z,10329.00
2022-09-28T08:39:39.510Z,11213.00
2022-09-28T08:40:39.527Z,11460.00
2022-09-28T08:41:39.514Z,11409.00
2022-09-28T08:42:39.471Z,13252.00
2022-09-28T08:43:39.452Z,13246.00
2022-09-28T08:44:39.525Z,12282.00
2022-09-28T08:45:39.465Z,11480.00
2022-09-28T08:46:39.424Z,11243.00
2022-09-28T08:47:39.512Z,10881.00
2022-09-28T08:48:39.402Z,11091.00
2022-09-28T08:49:39.392Z,11850.00
2022-09-28T08:50:39.376Z,11688.00
2022-09-28T08:51:39.355Z,10867.00
2022-09-28T08:52:39.366Z,10891.00
2022-09-28T08:53:39.365Z,11130.00
2022-09-28T08:54:39.326Z,11230.00
2022-09-28T08:55:39.323Z,10980.00
2022-09-28T08:56:39.333Z,11069.00
2022-09-28T08:57:39.286Z,10964.00
2022-09-28T08:58:39.266Z,10605.00
2022-09-28T08:59:39.378Z,10268.00
2022-09-28T09:00:39.249Z,10049.00
2022-09-28T09:01:39.283Z,9859.00
2022-09-28T09:02:39.312Z,9733.00
2022-09-28T09:03:39.208Z,8619.00
2022-09-28T09:04:39.220Z,7892.00
2022-09-28T09:05:39.237Z,7257.00
2022-09-28T09:06:39.186Z,6538.00
2022-09-28T09:07:39.182Z,5827.00
2022-09-28T09:08:39.140Z,5368.00
2022-09-28T09:09:39.139Z,5106.00
2022-09-28T09:10:39.145Z,5002.00
2022-09-28T09:11:39.142Z,5139.00
2022-09-28T09:12:39.113Z,5420.00
2022-09-28T09:13:39.110Z,5580.00
2022-09-28T09:14:39.104Z,5571.00
2022-09-28T09:15:39.081Z,5290.00
2022-09-28T09:16:39.097Z,4866.00
2022-09-28T09:17:39.062Z,4541.00
2022-09-28T09:18:39.024Z,4575.00
2022-09-28T09:19:39.033Z,5379.00
2022-09-28T09:20:38.996Z,6948.00
2022-09-28T09:21:38.974Z,8366.00
2022-09-28T09:22:38.976Z,8916.00
2022-09-28T09:23:39.058Z,9120.00
2022-09-28T09:24:38.947Z,9311.00
2022-09-28T09:25:38.931Z,9622.00
2022-09-28T09:26:38.915Z,9967.00
2022-09-28T09:27:38.908Z,10387.00
2022-09-28T09:28:38.888Z,10597.00
2022-09-28T09:29:38.921Z,10516.00
2022-09-28T09:30:38.906Z,10275.00
2022-09-28T09:31:38.867Z,10121.00
2022-09-28T09:32:38.958Z,9982.00
2022-09-28T09:33:38.845Z,9878.00
2022-09-28T09:34:38.810Z,10306.00
2022-09-28T09:35:38.940Z,9213.00
2022-09-28T09:36:38.820Z,8790.00
2022-09-28T09:37:38.779Z,8389.00
2022-09-28T09:38:38.768Z,8131.00
2022-09-28T09:39:38.751Z,9438.00
2022-09-28T09:40:38.836Z,9381.00
2022-09-28T09:41:38.910Z,9251.00
2022-09-28T09:42:38.723Z,9194.00
2022-09-28T09:43:38.712Z,9110.00
2022-09-28T09:44:38.722Z,8382.00
2022-09-28T09:45:38.717Z,9054.00
2022-09-28T09:46:38.673Z,9048.00
2022-09-28T09:47:38.714Z,8911.00
2022-09-28T09:48:38.656Z,9271.00
2022-09-28T09:49:38.623Z,9414.00
2022-09-28T09:50:38.617Z,9616.00
2022-09-28T09:51:38.613Z,9681.00
2022-09-28T09:52:41.051Z,9721.00
2022-09-28T09:53:39.615Z,9719.00
2022-09-28T09:54:38.584Z,9593.00
2022-09-28T09:55:38.547Z,8447.00
2022-09-28T09:56:38.539Z,8337.00
2022-09-28T09:57:38.527Z,8620.00
2022-09-28T09:58:39.305Z,8898.00
2022-09-28T09:59:38.626Z,8909.00
2022-09-28T10:00:39.269Z,9051.00
2022-09-28T10:01:39.290Z,8826.00
2022-09-28T10:02:39.332Z,8333.00
2022-09-28T10:03:39.238Z,8790.00
2022-09-28T10:04:39.219Z,8584.00
2022-09-28T10:05:39.249Z,9190.00
2022-09-28T10:06:39.189Z,8249.00
2022-09-28T10:07:43.100Z,8565.00
2022-09-28T10:08:38.390Z,10092.00
2022-09-28T10:09:39.175Z,8844.00
2022-09-28T10:10:38.361Z,9470.00
2022-09-28T10:11:38.811Z,8428.00
2022-09-28T10:12:38.510Z,8872.00
2022-09-28T10:13:38.325Z,9369.00
2022-09-28T10:14:38.322Z,9934.00
2022-09-28T10:15:38.303Z,11175.00
2022-09-28T10:16:38.547Z,10601.00
2022-09-28T10:17:38.298Z,11249.00
2022-09-28T10:18:38.270Z,11441.00
2022-09-28T10:19:38.253Z,9970.00
2022-09-28T10:20:38.253Z,11041.00
2022-09-28T10:21:38.223Z,10125.00
2022-09-28T10:22:38.207Z,9779.00
2022-09-28T10:23:38.327Z,9523.00
2022-09-28T10:24:38.185Z,9192.00
2022-09-28T10:25:38.167Z,8942.00
2022-09-28T10:26:38.166Z,8444.00
2022-09-28T10:27:38.139Z,8227.00
2022-09-28T10:28:38.136Z,8143.00
2022-09-28T10:29:38.147Z,8130.00
2022-09-28T10:30:38.132Z,8201.00
2022-09-28T10:31:39.048Z,7831.00
2022-09-28T10:32:38.867Z,7799.00
2022-09-28T10:33:38.857Z,7901.00
2022-09-28T10:34:38.839Z,7911.00
2022-09-28T10:35:38.158Z,7929.00
2022-09-28T10:36:39.989Z,7914.00
2022-09-28T10:37:38.807Z,7892.00
2022-09-28T10:38:38.001Z,8258.00
2022-09-28T10:39:38.021Z,7909.00
2022-09-28T10:40:38.019Z,8017.00
2022-09-28T10:41:38.770Z,8161.00
2022-09-28T10:42:37.959Z,8391.00
2022-09-28T10:43:37.931Z,8620.00
2022-09-28T10:44:37.930Z,8806.00
2022-09-28T10:45:37.979Z,9047.00
2022-09-28T10:46:37.924Z,9084.00
2022-09-28T10:47:38.805Z,9113.00
2022-09-28T10:48:38.372Z,9419.00
2022-09-28T10:49:37.855Z,9734.00
2022-09-28T10:50:37.853Z,10276.00
2022-09-28T10:51:38.064Z,12541.00
2022-09-28T10:52:37.827Z,12861.00
2022-09-28T10:53:37.954Z,13014.00
2022-09-28T10:54:37.804Z,13198.00
2022-09-28T10:55:37.802Z,13527.00
2022-09-28T10:56:37.798Z,13320.00
2022-09-28T10:57:37.769Z,11476.00
2022-09-28T10:58:37.745Z,13341.00
2022-09-28T10:59:37.865Z,13660.00
2022-09-28T11:00:37.750Z,12161.00
2022-09-28T11:01:37.774Z,13036.00
2022-09-28T11:02:37.747Z,11998.00
2022-09-28T11:03:37.677Z,12736.00
2022-09-28T11:04:37.675Z,12852.00
2022-09-28T11:05:37.910Z,13104.00
2022-09-28T11:06:37.670Z,12995.00
2022-09-28T11:07:37.659Z,13075.00
2022-09-28T11:08:37.635Z,12969.00
2022-09-28T11:09:37.671Z,12804.00
2022-09-28T11:10:37.602Z,12693.00
2022-09-28T11:11:38.410Z,12827.00
2022-09-28T11:12:37.574Z,13036.00
2022-09-28T11:13:37.567Z,13075.00
2022-09-28T11:14:42.050Z,13034.00
2022-09-28T11:15:38.606Z,13048.00
2022-09-28T11:16:37.597Z,13059.00
2022-09-28T11:17:37.572Z,13166.00
2022-09-28T11:18:37.504Z,13166.00
2022-09-28T11:19:37.494Z,13088.00
2022-09-28T11:20:37.493Z,13120.00
2022-09-28T11:21:38.248Z,13061.00
2022-09-28T11:22:37.456Z,12936.00
2022-09-28T11:23:37.497Z,13051.00
2022-09-28T11:24:37.576Z,13403.00
2022-09-28T11:25:37.481Z,13656.00
2022-09-28T11:26:37.396Z,13639.00
2022-09-28T11:27:37.388Z,13706.00
2022-09-28T11:28:37.386Z,11902.00
2022-09-28T11:29:37.460Z,13799.00
2022-09-28T11:30:37.387Z,14007.00
2022-09-28T11:31:37.328Z,12416.00
2022-09-28T11:32:38.105Z,14215.00
2022-09-28T11:33:37.308Z,14348.00
2022-09-28T11:34:58.088Z,14157.00
2022-09-28T11:35:39.104Z,10954.00
2022-09-28T11:36:38.052Z,10368.00
2022-09-28T11:37:38.046Z,10035.00
2022-09-28T11:38:38.041Z,9882.00
2022-09-28T11:39:38.023Z,9660.00
2022-09-28T11:40:38.716Z,9525.00
2022-09-28T11:41:38.132Z,9678.00
2022-09-28T11:42:37.984Z,9941.00
2022-09-28T11:43:37.962Z,13070.00
2022-09-28T11:44:37.962Z,13341.00
2022-09-28T11:45:37.995Z,13571.00
2022-09-28T11:46:37.933Z,13815.00
2022-09-28T11:47:37.948Z,14002.00
2022-09-28T11:48:38.610Z,14021.00
2022-09-28T11:49:37.134Z,14086.00
2022-09-28T11:50:37.101Z,14428.00
2022-09-28T11:51:37.066Z,14898.00
2022-09-28T11:52:37.847Z,15315.00
2022-09-28T11:53:37.864Z,15434.00
2022-09-28T11:54:37.042Z,15619.00
2022-09-28T11:55:37.018Z,15743.00
2022-09-28T11:56:37.031Z,12959.00
2022-09-28T11:57:36.992Z,12047.00
2022-09-28T11:58:36.999Z,11757.00
2022-09-28T11:59:36.995Z,14534.00
2022-09-28T12:00:36.984Z,14207.00
2022-09-28T12:01:37.224Z,14159.00
2022-09-28T12:02:37.009Z,14054.00
2022-09-28T12:03:36.993Z,13957.00
2022-09-28T12:04:36.918Z,13232.00
2022-09-28T12:05:36.937Z,10512.00
2022-09-28T12:06:36.904Z,10547.00
2022-09-28T12:07:36.881Z,13639.00
2022-09-28T12:08:36.856Z,13687.00
2022-09-28T12:09:36.845Z,13691.00
2022-09-28T12:10:36.842Z,13541.00
2022-09-28T12:11:36.866Z,13339.00
2022-09-28T12:12:37.596Z,13287.00
2022-09-28T12:13:36.804Z,13365.00
2022-09-28T12:14:36.783Z,13395.00
2022-09-28T12:15:59.231Z,13491.00
2022-09-28T12:17:04.296Z,13441.00
2022-09-28T12:17:37.800Z,13563.00
2022-09-28T12:18:36.827Z,13425.00
2022-09-28T12:19:36.716Z,13172.00
2022-09-28T12:20:36.717Z,12871.00
2022-09-28T12:21:36.768Z,12559.00
2022-09-28T12:22:36.719Z,12410.00
2022-09-28T12:23:36.659Z,12379.00
2022-09-28T12:24:36.689Z,12522.00
2022-09-28T12:25:37.431Z,12772.00
2022-09-28T12:26:38.047Z,12984.00
2022-09-28T12:27:37.400Z,13206.00
2022-09-28T12:28:36.630Z,13271.00
2022-09-28T12:29:36.590Z,13188.00
2022-09-28T12:30:36.615Z,12921.00
2022-09-28T12:31:37.350Z,12558.00
2022-09-28T12:32:36.831Z,12500.00